Time;durP1;ratioP1;P1;durP2;ratioP2;P2;SDS_P1;SDS_P2;PMS_P1;PMS_P2;Temp;Humidity;BMP_temperature;BMP_pressure;BME280_temperature;BME280_humidity;BME280_pressure;Samples;Min_cycle;Max_cycle;Signal;HPM_P1;HPM_P2
2021/05/14 00:00:07;;;;;;;7.13;3.40;;;;;;;15.41;53.38;99368.13;5077690;28;20531;-67
2021/05/14 00:02:33;;;;;;;6.10;3.67;;;;;;;15.52;52.73;99362.22;5083041;28;20910;-67
2021/05/14 00:05:00;;;;;;;5.73;3.40;;;;;;;15.47;52.79;99372.75;5078536;28;20487;-66
2021/05/14 00:07:27;;;;;;;6.13;3.10;;;;;;;15.49;52.31;99364.47;5081198;28;20472;-66
2021/05/14 00:09:53;;;;;;;3.80;3.33;;;;;;;15.46;52.68;99363.00;5081122;28;20474;-66
2021/05/14 00:12:19;;;;;;;3.30;2.77;;;;;;;15.47;53.28;99369.19;5064591;28;20563;-66
2021/05/14 00:14:45;;;;;;;4.07;3.00;;;;;;;15.37;53.12;99361.47;5071261;28;20464;-66
2021/05/14 00:17:12;;;;;;;5.47;3.97;;;;;;;15.29;53.65;99361.59;5076737;28;20484;-65
2021/05/14 00:19:38;;;;;;;5.60;4.23;;;;;;;15.17;54.22;99358.56;5071854;28;20488;-65
2021/05/14 00:22:04;;;;;;;3.83;3.20;;;;;;;15.19;54.30;99359.22;5078891;28;20578;-65
2021/05/14 00:24:31;;;;;;;4.90;4.10;;;;;;;15.13;54.98;99362.69;5076369;28;20474;-65
2021/05/14 00:26:57;;;;;;;4.90;3.53;;;;;;;15.15;54.90;99358.75;5075886;28;21003;-65
2021/05/14 00:29:23;;;;;;;4.30;3.67;;;;;;;15.15;54.75;99355.25;5074021;28;20892;-65
2021/05/14 00:31:49;;;;;;;5.70;3.50;;;;;;;15.27;54.62;99351.00;5074011;28;20571;-65
2021/05/14 00:34:15;;;;;;;3.90;3.40;;;;;;;15.41;54.37;99349.28;5065891;28;20457;-65
2021/05/14 00:36:41;;;;;;;6.47;3.80;;;;;;;15.49;54.07;99348.31;5075056;28;20909;-66
2021/05/14 00:39:07;;;;;;;6.47;3.93;;;;;;;15.36;54.33;99349.88;5069502;28;20445;-65
2021/05/14 00:41:35;;;;;;;7.80;4.13;;;;;;;15.21;54.50;99346.41;5067370;28;20575;-65
2021/05/14 00:44:28;;;;;;;6.40;4.03;;;;;;;15.13;54.98;99358.13;5081680;28;20486;-66
2021/05/14 00:46:55;;;;;;;4.50;3.93;;;;;;;15.07;55.27;99348.97;5078021;28;20504;-65
2021/05/14 00:49:21;;;;;;;6.83;4.47;;;;;;;15.06;55.67;99349.16;5069588;28;20491;-65
2021/05/14 00:51:47;;;;;;;4.60;4.00;;;;;;;15.02;55.72;99343.31;5079694;28;20484;-65
2021/05/14 00:54:15;;;;;;;5.57;4.00;;;;;;;15.18;55.26;99349.50;5073851;28;20475;-65
2021/05/14 00:56:42;;;;;;;4.60;3.33;;;;;;;15.17;55.09;99340.59;5080027;28;20531;-66
2021/05/14 00:59:08;;;;;;;7.13;4.30;;;;;;;14.98;55.70;99357.34;5082628;28;20491;-65
2021/05/14 01:01:34;;;;;;;4.77;4.23;;;;;;;14.99;55.78;99353.66;5073545;28;20887;-65
2021/05/14 01:04:01;;;;;;;5.70;3.60;;;;;;;14.91;56.49;99357.28;5072722;28;20485;-65
2021/05/14 01:06:27;;;;;;;5.27;4.20;;;;;;;14.85;56.50;99355.38;5062385;28;20493;-66
2021/05/14 01:08:53;;;;;;;6.60;4.40;;;;;;;14.85;55.93;99363.44;5065108;28;20481;-65
2021/05/14 01:11:20;;;;;;;6.03;3.87;;;;;;;14.81;56.80;99351.41;5075166;28;20540;-66
2021/05/14 01:13:47;;;;;;;4.93;3.90;;;;;;;14.81;56.51;99357.59;5078020;28;20512;-66
2021/05/14 01:16:13;;;;;;;4.20;3.80;;;;;;;14.94;56.21;99356.06;5068351;28;20503;-66
2021/05/14 01:18:39;;;;;;;8.97;4.17;;;;;;;14.92;56.68;99344.66;5070966;28;20461;-66
2021/05/14 01:21:06;;;;;;;7.00;4.03;;;;;;;14.92;56.03;99348.19;5070600;28;20512;-65
2021/05/14 01:23:32;;;;;;;5.50;4.03;;;;;;;14.78;56.55;99349.06;5076862;28;20504;-65
2021/05/14 01:25:58;;;;;;;6.70;4.20;;;;;;;14.71;56.79;99356.25;5078775;28;20530;-65
2021/05/14 01:28:24;;;;;;;6.33;4.57;;;;;;;14.65;57.04;99347.91;5071807;28;20790;-66
2021/05/14 01:30:50;;;;;;;6.00;3.90;;;;;;;14.57;57.33;99356.06;5070983;28;20495;-66
2021/05/14 01:33:17;;;;;;;10.13;4.53;;;;;;;14.62;57.65;99348.28;5071774;28;21534;-65
2021/05/14 01:35:43;;;;;;;5.20;4.40;;;;;;;14.65;57.67;99347.91;5068441;28;20504;-65
2021/05/14 01:38:10;;;;;;;5.60;4.30;;;;;;;14.74;57.25;99345.09;5079154;28;20535;-65
2021/05/14 01:40:36;;;;;;;5.40;4.20;;;;;;;14.80;57.28;99350.53;5073833;28;20503;-65
2021/05/14 01:43:02;;;;;;;7.57;4.10;;;;;;;14.95;57.33;99344.28;5072757;28;20444;-65
2021/05/14 01:45:29;;;;;;;5.60;4.57;;;;;;;14.76;57.89;99349.25;5070175;28;20514;-65
2021/05/14 01:47:55;;;;;;;8.40;4.90;;;;;;;14.70;58.07;99350.00;5069696;28;20519;-65
2021/05/14 01:50:21;;;;;;;8.87;5.00;;;;;;;14.58;58.49;99343.41;5069550;28;20464;-65
2021/05/14 01:52:47;;;;;;;4.67;4.20;;;;;;;14.62;58.75;99348.28;5074938;28;20619;-65
2021/05/14 01:55:15;;;;;;;6.57;4.50;;;;;;;14.64;58.64;99351.59;5066174;28;20441;-64
2021/05/14 01:57:41;;;;;;;6.90;4.07;;;;;;;14.73;57.95;99348.81;5073496;28;20476;-65
2021/05/14 02:00:09;;;;;;;8.20;4.30;;;;;;;14.63;58.19;99349.97;5080254;28;20525;-65
2021/05/14 02:02:35;;;;;;;5.37;4.87;;;;;;;14.60;58.52;99349.47;5062888;28;20444;-65
2021/05/14 02:05:01;;;;;;;5.20;4.53;;;;;;;14.65;58.20;99342.53;5074179;28;20451;-65
2021/05/14 02:07:28;;;;;;;5.77;4.70;;;;;;;14.64;57.64;99348.09;5071563;28;20540;-65
2021/05/14 02:09:54;;;;;;;7.23;5.30;;;;;;;14.64;57.87;99345.41;5071278;28;20520;-65
2021/05/14 02:12:21;;;;;;;7.40;5.43;;;;;;;14.58;57.79;99344.31;5060793;28;20480;-65
2021/05/14 02:14:47;;;;;;;5.53;4.50;;;;;;;14.47;58.58;99340.19;5076826;28;20516;-65
2021/05/14 02:17:13;;;;;;;7.10;4.87;;;;;;;14.48;58.59;99341.88;5065491;28;20879;-65
2021/05/14 02:19:39;;;;;;;5.90;4.97;;;;;;;14.53;58.53;99335.94;5076327;28;20502;-67
2021/05/14 02:22:06;;;;;;;4.83;4.17;;;;;;;14.55;58.36;99339.28;5068079;28;20512;-65
2021/05/14 02:24:32;;;;;;;6.23;5.30;;;;;;;14.43;58.95;99338.09;5063194;28;20487;-65
2021/05/14 02:26:58;;;;;;;6.10;5.07;;;;;;;14.41;58.88;99335.59;5065159;28;20555;-66
2021/05/14 02:29:25;;;;;;;5.10;4.30;;;;;;;14.13;59.24;99343.50;5062676;28;20902;-66
2021/05/14 02:31:51;;;;;;;8.67;5.47;;;;;;;14.14;59.23;99350.53;5071777;28;20627;-65
2021/05/14 02:34:18;;;;;;;5.37;4.47;;;;;;;13.68;60.54;99350.66;5068049;28;20877;-65
2021/05/14 02:36:44;;;;;;;6.37;4.97;;;;;;;13.54;61.27;99350.47;5062756;28;20544;-65
2021/05/14 02:39:10;;;;;;;4.93;4.43;;;;;;;13.82;60.71;99346.34;5073224;28;20509;-65
2021/05/14 02:41:37;;;;;;;5.67;4.63;;;;;;;13.77;60.54;99341.53;5075870;28;20711;-65
2021/05/14 02:44:05;;;;;;;6.00;4.60;;;;;;;13.91;59.89;99348.75;5073615;28;20516;-66
2021/05/14 02:46:32;;;;;;;7.47;5.03;;;;;;;14.22;58.84;99344.25;5062490;28;20487;-66
2021/05/14 02:48:58;;;;;;;5.80;4.50;;;;;;;14.26;58.79;99346.34;5067506;28;20464;-65
2021/05/14 02:51:24;;;;;;;6.60;5.00;;;;;;;14.37;58.50;99349.59;5066637;28;20507;-65
2021/05/14 02:53:50;;;;;;;6.43;4.80;;;;;;;14.39;58.30;99347.53;5072012;28;20448;-66
2021/05/14 02:56:16;;;;;;;5.60;5.03;;;;;;;14.30;58.56;99354.88;5073646;28;20559;-65
2021/05/14 02:58:42;;;;;;;10.97;6.30;;;;;;;14.29;58.70;99347.84;5078104;28;20499;-65
2021/05/14 03:01:09;;;;;;;9.43;6.10;;;;;;;14.16;59.04;99348.47;5071192;28;20499;-65
2021/05/14 03:03:36;;;;;;;8.53;7.37;;;;;;;14.19;59.14;99345.44;5067771;28;20548;-65
2021/05/14 03:06:02;;;;;;;12.27;8.23;;;;;;;14.24;58.92;99348.41;5064639;28;20915;-66
2021/05/14 03:08:29;;;;;;;10.90;7.00;;;;;;;14.12;59.20;99348.03;5077181;28;20491;-65
2021/05/14 03:10:55;;;;;;;7.60;6.73;;;;;;;14.01;59.70;99344.97;5074061;28;20554;-66
2021/05/14 03:13:21;;;;;;;10.77;7.10;;;;;;;13.84;60.29;99350.53;5075157;28;20459;-65
2021/05/14 03:15:47;;;;;;;12.53;8.07;;;;;;;13.86;59.94;99351.16;5071395;28;20504;-65
2021/05/14 03:18:14;;;;;;;10.87;7.97;;;;;;;13.66;60.88;99356.25;5073849;28;20933;-65
2021/05/14 03:20:41;;;;;;;12.17;8.13;;;;;;;13.60;61.20;99350.78;5074554;28;20495;-65
2021/05/14 03:23:07;;;;;;;12.33;8.80;;;;;;;13.40;62.00;99353.13;5074810;28;20462;-65
2021/05/14 03:25:33;;;;;;;10.70;8.60;;;;;;;13.63;61.33;99353.09;5075790;28;20499;-65
2021/05/14 03:27:59;;;;;;;13.00;9.30;;;;;;;13.66;61.20;99352.72;5082081;28;20456;-64
2021/05/14 03:30:25;;;;;;;11.10;9.53;;;;;;;13.67;61.23;99357.06;5069254;28;20543;-64
2021/05/14 03:32:51;;;;;;;15.63;9.30;;;;;;;13.65;61.45;99354.56;5068211;28;20453;-65
2021/05/14 03:35:17;;;;;;;14.10;9.40;;;;;;;13.65;61.31;99357.25;5073354;28;20448;-65
2021/05/14 03:37:44;;;;;;;15.57;9.73;;;;;;;13.50;61.92;99365.28;5079554;28;20898;-66
2021/05/14 03:40:17;;;;;;;10.80;8.10;;;;;;;13.47;62.15;99360.28;5072660;28;21049;-65
2021/05/14 03:42:44;;;;;;;13.87;9.20;;;;;;;13.79;61.07;99366.34;5082040;28;20818;-65
2021/05/14 03:45:10;;;;;;;10.47;7.77;;;;;;;14.01;60.34;99361.09;5074941;28;20508;-66
2021/05/14 03:47:37;;;;;;;14.33;9.33;;;;;;;14.04;60.35;99358.84;5071811;28;20996;-65
2021/05/14 03:50:04;;;;;;;12.27;9.50;;;;;;;13.85;60.74;99354.91;5065297;28;20534;-65
2021/05/14 03:52:32;;;;;;;14.80;10.67;;;;;;;13.96;60.56;99358.13;5067823;28;20464;-66
2021/05/14 03:55:00;;;;;;;14.10;10.67;;;;;;;13.97;60.39;99357.09;5079176;28;20455;-65
2021/05/14 03:57:26;;;;;;;12.80;10.97;;;;;;;13.81;61.02;99358.94;5069956;28;20476;-66
2021/05/14 03:59:52;;;;;;;14.80;11.03;;;;;;;13.83;60.84;99359.59;5078313;28;20436;-65
2021/05/14 04:02:19;;;;;;;15.77;11.27;;;;;;;13.84;61.08;99357.75;5070930;28;20564;-65
2021/05/14 04:04:45;;;;;;;14.73;11.07;;;;;;;13.68;61.85;99361.41;5080054;28;20486;-66
2021/05/14 04:07:12;;;;;;;17.30;11.43;;;;;;;13.79;61.58;99352.94;5063630;28;21017;-66
2021/05/14 04:09:39;;;;;;;17.97;13.03;;;;;;;14.04;60.91;99349.97;5079101;28;20464;-65
2021/05/14 04:14:27;;;;;;;16.53;13.57;;;;;;;14.05;60.85;99359.72;5070604;28;20487;-66
2021/05/14 04:15:01;;;;;;;18.10;13.83;;;;;;;14.06;61.14;99359.53;5078060;28;20455;-65
2021/05/14 04:17:27;;;;;;;17.77;13.47;;;;;;;14.15;60.82;99364.78;5081131;28;21014;-66
2021/05/14 04:19:53;;;;;;;17.47;14.50;;;;;;;14.19;60.71;99361.56;5077920;28;20308;-65
2021/05/14 04:22:19;;;;;;;17.27;14.03;;;;;;;14.37;60.29;99363.03;5081590;28;20484;-66
2021/05/14 04:24:46;;;;;;;21.10;15.60;;;;;;;14.39;60.32;99358.28;5080618;28;20460;-66
2021/05/14 04:27:14;;;;;;;20.17;14.47;;;;;;;14.81;59.20;99364.84;5081579;28;20476;-65
2021/05/14 04:29:40;;;;;;;19.37;14.10;;;;;;;14.77;59.04;99366.22;5078087;28;20435;-66
2021/05/14 04:32:07;;;;;;;18.43;13.97;;;;;;;14.78;58.75;99362.53;5078015;28;21159;-65
2021/05/14 04:34:33;;;;;;;23.10;15.20;;;;;;;14.88;58.77;99363.88;5075122;28;20541;-65
2021/05/14 04:36:59;;;;;;;21.87;16.17;;;;;;;14.85;58.56;99358.88;5071119;28;21029;-65
2021/05/14 04:39:25;;;;;;;16.60;13.40;;;;;;;14.93;58.66;99363.31;5074666;28;20527;-66
2021/05/14 04:41:51;;;;;;;19.13;14.60;;;;;;;15.15;57.87;99363.31;5077860;28;20917;-65
2021/05/14 04:44:18;;;;;;;19.67;14.77;;;;;;;14.99;58.57;99361.72;5073808;28;20453;-66
2021/05/14 04:46:44;;;;;;;19.07;13.93;;;;;;;14.92;58.53;99356.25;5072886;28;21012;-66
2021/05/14 04:49:11;;;;;;;21.10;14.43;;;;;;;14.82;58.85;99356.56;5072701;28;20449;-65
2021/05/14 04:51:37;;;;;;;17.33;13.43;;;;;;;14.60;59.72;99366.47;5062642;28;20530;-66
2021/05/14 04:54:05;;;;;;;16.13;12.90;;;;;;;14.58;59.57;99363.13;5070900;28;20453;-66
2021/05/14 04:56:31;;;;;;;21.50;15.70;;;;;;;14.43;59.88;99352.34;5068857;28;20507;-66
2021/05/14 04:58:57;;;;;;;19.80;14.20;;;;;;;14.69;59.31;99364.50;5076736;28;20506;-65
2021/05/14 05:01:24;;;;;;;20.93;15.20;;;;;;;14.67;59.68;99367.38;5071298;28;20539;-65
2021/05/14 05:03:51;;;;;;;18.60;14.80;;;;;;;14.90;59.03;99366.38;5075999;28;20533;-65
2021/05/14 05:06:17;;;;;;;18.40;15.57;;;;;;;14.73;59.51;99365.78;5076834;28;20488;-65
2021/05/14 05:08:43;;;;;;;17.60;14.37;;;;;;;14.65;59.30;99369.44;5082063;28;20455;-64
2021/05/14 05:11:10;;;;;;;18.73;14.83;;;;;;;14.59;59.77;99370.16;5079656;28;20554;-64
2021/05/14 05:13:36;;;;;;;18.87;14.90;;;;;;;14.10;60.77;99370.75;5080936;28;20452;-66
2021/05/14 05:16:02;;;;;;;19.77;14.90;;;;;;;14.16;60.91;99367.28;5080503;28;20939;-65
2021/05/14 05:18:29;;;;;;;19.13;13.57;;;;;;;14.21;60.76;99374.81;5077380;28;20574;-64
2021/05/14 05:20:55;;;;;;;19.27;13.77;;;;;;;14.07;61.56;99371.94;5064749;28;20563;-65
2021/05/14 05:23:21;;;;;;;17.10;14.13;;;;;;;14.46;60.42;99380.72;5074633;28;20931;-65
2021/05/14 05:25:48;;;;;;;24.93;15.67;;;;;;;14.45;60.23;99377.22;5066325;28;20508;-65
2021/05/14 05:28:14;;;;;;;20.77;15.70;;;;;;;14.51;59.95;99383.69;5077346;28;20440;-65
2021/05/14 05:30:41;;;;;;;21.53;14.37;;;;;;;14.60;59.61;99379.91;5072681;28;20574;-65
2021/05/14 05:33:07;;;;;;;19.20;15.27;;;;;;;14.92;58.79;99387.72;5078447;28;20971;-66
2021/05/14 05:35:34;;;;;;;19.33;15.00;;;;;;;14.90;59.15;99385.22;5067621;28;20488;-65
2021/05/14 05:38:00;;;;;;;20.97;15.40;;;;;;;15.38;58.14;99390.06;5067827;28;21151;-66
2021/05/14 05:40:26;;;;;;;22.53;15.93;;;;;;;15.60;57.17;99393.56;5069076;28;20547;-66
2021/05/14 05:42:52;;;;;;;21.57;16.40;;;;;;;15.31;57.88;99395.41;5071256;28;21100;-66
2021/05/14 05:45:18;;;;;;;22.83;16.63;;;;;;;15.39;57.61;99400.63;5072390;28;20512;-65
2021/05/14 05:47:44;;;;;;;21.67;17.20;;;;;;;15.43;57.34;99396.53;5076423;28;20428;-65
2021/05/14 05:50:11;;;;;;;21.03;16.67;;;;;;;15.87;56.78;99396.53;5076175;28;20986;-65
2021/05/14 05:52:38;;;;;;;22.00;15.53;;;;;;;16.40;55.39;99399.53;5069627;28;20522;-66
2021/05/14 05:55:05;;;;;;;27.00;16.73;;;;;;;16.82;53.56;99402.22;5070153;28;20448;-65
2021/05/14 05:57:31;;;;;;;21.50;15.63;;;;;;;17.05;52.98;99397.34;5072837;28;20542;-66
2021/05/14 05:59:57;;;;;;;22.97;16.50;;;;;;;17.27;52.24;99402.56;5064173;28;20519;-65
2021/05/14 06:02:24;;;;;;;21.77;17.03;;;;;;;16.99;52.84;99408.13;5070093;28;20522;-65
2021/05/14 06:04:50;;;;;;;21.83;17.27;;;;;;;17.06;52.96;99412.50;5079020;28;20470;-66
2021/05/14 06:07:16;;;;;;;22.83;17.63;;;;;;;16.69;53.68;99411.94;5067687;28;20523;-66
2021/05/14 06:09:43;;;;;;;26.30;18.37;;;;;;;16.75;53.95;99405.75;5060761;28;20473;-69
2021/05/14 06:12:09;;;;;;;24.67;19.00;;;;;;;16.60;53.98;99401.53;5075944;28;20490;-68
2021/05/14 06:14:36;;;;;;;26.57;17.90;;;;;;;17.24;52.55;99406.53;5078979;28;20471;-71
2021/05/14 06:17:10;;;;;;;24.30;17.67;;;;;;;17.18;52.91;99411.91;5075451;28;21137;-69
2021/05/14 06:19:43;;;;;;;23.67;17.77;;;;;;;16.81;54.26;99412.19;5078436;28;20463;-68
2021/05/14 06:22:09;;;;;;;22.93;18.80;;;;;;;16.73;54.50;99405.13;5068590;28;20494;-67
2021/05/14 06:24:35;;;;;;;25.43;19.73;;;;;;;16.91;54.29;99409.97;5070554;28;20484;-67
2021/05/14 06:27:02;;;;;;;26.80;18.00;;;;;;;16.96;54.16;99411.22;5076923;28;20477;-66
2021/05/14 06:29:28;;;;;;;23.77;18.20;;;;;;;16.69;55.00;99424.59;5064864;28;20453;-68
2021/05/14 06:31:54;;;;;;;27.53;19.30;;;;;;;16.73;55.15;99409.66;5065692;28;20518;-68
2021/05/14 06:34:20;;;;;;;27.40;21.13;;;;;;;17.22;53.65;99413.16;5071467;28;20453;-66
2021/05/14 06:36:46;;;;;;;26.10;19.77;;;;;;;17.39;53.21;99421.72;5073803;28;22451;-68
2021/05/14 06:39:12;;;;;;;28.47;20.63;;;;;;;17.61;52.61;99422.38;5067912;28;20447;-67
2021/05/14 06:41:39;;;;;;;28.10;19.20;;;;;;;17.96;52.16;99414.91;5070527;28;20479;-66
2021/05/14 06:44:06;;;;;;;27.00;18.13;;;;;;;18.85;49.86;99417.22;5073742;28;20559;-67
2021/05/14 06:46:32;;;;;;;23.10;18.77;;;;;;;20.33;45.84;99415.97;5077707;28;20491;-67
2021/05/14 06:48:58;;;;;;;22.43;17.13;;;;;;;21.79;43.04;99418.66;5080940;28;20460;-67
2021/05/14 06:51:24;;;;;;;23.97;17.07;;;;;;;21.80;41.97;99425.75;5079357;28;20483;-68
2021/05/14 06:53:51;;;;;;;18.33;16.03;;;;;;;21.55;42.77;99431.38;5078830;28;21554;-68
2021/05/14 06:56:18;;;;;;;20.47;17.00;;;;;;;19.64;47.24;99425.94;5077211;28;20486;-65
2021/05/14 06:58:44;;;;;;;19.37;17.20;;;;;;;19.86;46.33;99427.25;5069532;28;20563;-65
2021/05/14 07:01:11;;;;;;;18.40;16.50;;;;;;;19.17;48.25;99431.66;5064788;28;20512;-65
2021/05/14 07:03:37;;;;;;;17.77;15.80;;;;;;;18.90;49.07;99429.06;5074747;28;20479;-65
2021/05/14 07:06:03;;;;;;;16.17;13.63;;;;;;;17.64;50.35;99427.38;5068461;28;20479;-65
2021/05/14 07:08:29;;;;;;;16.57;13.73;;;;;;;18.34;50.42;99426.94;5068048;28;20961;-65
2021/05/14 07:10:55;;;;;;;16.33;13.87;;;;;;;18.42;49.43;99432.13;5066124;28;20483;-65
2021/05/14 07:13:21;;;;;;;18.90;12.67;;;;;;;18.01;49.52;99428.63;5070583;28;20899;-65
2021/05/14 07:15:48;;;;;;;16.43;12.87;;;;;;;18.35;48.80;99437.56;5072617;28;20619;-67
2021/05/14 07:18:15;;;;;;;17.63;13.07;;;;;;;18.19;48.86;99428.00;5069876;28;20476;-65
2021/05/14 07:20:41;;;;;;;14.17;11.40;;;;;;;18.02;50.22;99443.84;5056376;28;20469;-70
2021/05/14 07:23:07;;;;;;;16.47;12.37;;;;;;;17.54;50.59;99437.75;5075383;28;20455;-65
2021/05/14 07:25:33;;;;;;;14.30;12.77;;;;;;;17.75;49.94;99450.25;5069506;28;20482;-64
2021/05/14 07:28:00;;;;;;;13.57;12.17;;;;;;;17.70;50.37;99446.28;5070654;28;20465;-66
2021/05/14 07:30:26;;;;;;;14.90;11.80;;;;;;;17.12;51.58;99454.09;5066170;28;20472;-66
2021/05/14 07:32:52;;;;;;;15.30;12.47;;;;;;;16.61;53.30;99449.88;5076443;28;20491;-66
2021/05/14 07:35:20;;;;;;;16.70;13.40;;;;;;;16.56;54.40;99460.44;5075618;28;20992;-64
2021/05/14 07:37:46;;;;;;;15.17;13.67;;;;;;;16.67;54.01;99462.59;5077329;28;20484;-66
2021/05/14 07:40:12;;;;;;;15.83;14.00;;;;;;;16.38;54.68;99461.78;5075605;28;20460;-64
2021/05/14 07:42:39;;;;;;;16.57;13.70;;;;;;;16.40;55.18;99460.75;5077191;28;20450;-67
2021/05/14 07:45:06;;;;;;;16.13;13.30;;;;;;;16.13;55.64;99463.28;5060104;28;20526;-65
2021/05/14 07:47:32;;;;;;;14.70;13.20;;;;;;;16.27;55.62;99469.59;5073212;28;20432;-65
2021/05/14 07:49:58;;;;;;;17.63;14.60;;;;;;;16.29;55.55;99470.25;5077371;28;20573;-62
2021/05/14 07:52:25;;;;;;;20.20;14.60;;;;;;;16.20;56.16;99469.56;5067549;28;20480;-63
2021/05/14 07:54:51;;;;;;;16.37;14.37;;;;;;;16.49;55.57;99473.91;5066207;28;20468;-63
2021/05/14 07:57:17;;;;;;;17.17;15.37;;;;;;;16.14;56.61;99465.78;5066146;28;20502;-64
2021/05/14 07:59:44;;;;;;;17.70;15.80;;;;;;;15.99;57.63;99478.53;5067275;28;20445;-65
2021/05/14 08:02:10;;;;;;;19.30;15.67;;;;;;;16.19;57.46;99478.66;5078607;28;20502;-63
2021/05/14 08:04:36;;;;;;;18.67;16.67;;;;;;;16.05;57.42;99476.91;5073643;28;20453;-64
2021/05/14 08:07:02;;;;;;;19.73;15.87;;;;;;;16.50;56.95;99485.53;5078934;28;20889;-64
2021/05/14 08:09:29;;;;;;;17.20;15.30;;;;;;;16.19;57.69;99484.88;5072716;28;20445;-68
2021/05/14 08:11:55;;;;;;;19.43;16.17;;;;;;;16.29;56.97;99481.84;5071855;28;20478;-65
2021/05/14 08:14:22;;;;;;;18.97;16.57;;;;;;;16.53;56.88;99480.56;5073168;28;20456;-65
2021/05/14 08:16:48;;;;;;;18.30;15.57;;;;;;;16.39;56.94;99484.22;5079741;28;20484;-64
2021/05/14 08:19:14;;;;;;;18.70;16.27;;;;;;;16.58;56.67;99482.69;5074523;28;20455;-64
2021/05/14 08:21:41;;;;;;;18.97;15.37;;;;;;;16.50;57.26;99483.66;5074786;28;20718;-63
2021/05/14 08:24:08;;;;;;;21.07;17.30;;;;;;;16.72;57.20;99481.72;5081612;28;20468;-67
2021/05/14 08:26:36;;;;;;;18.20;16.27;;;;;;;16.98;56.58;99482.91;5081040;28;20674;-68
2021/05/14 08:29:02;;;;;;;18.77;16.77;;;;;;;16.80;56.59;99486.09;5069607;28;20800;-68
2021/05/14 08:31:29;;;;;;;21.30;16.30;;;;;;;17.18;55.57;99490.25;5077311;28;20489;-68
2021/05/14 08:33:55;;;;;;;20.63;17.60;;;;;;;16.67;57.32;99486.88;5072899;28;20456;-68
2021/05/14 08:36:22;;;;;;;20.00;16.13;;;;;;;16.39;58.01;99484.22;5080901;28;20471;-67
2021/05/14 08:38:48;;;;;;;19.47;16.90;;;;;;;16.63;58.04;99492.84;5067809;28;20483;-68
2021/05/14 08:41:14;;;;;;;19.43;17.27;;;;;;;16.96;56.89;99487.69;5074448;28;21057;-68
2021/05/14 08:43:41;;;;;;;19.57;17.57;;;;;;;16.53;57.87;99490.53;5081923;28;20452;-67
2021/05/14 08:46:13;;;;;;;21.23;17.50;;;;;;;16.26;58.88;99494.91;5079714;28;20500;-67
2021/05/14 08:48:40;;;;;;;20.20;18.00;;;;;;;16.47;58.62;99494.84;5081102;28;20515;-67
2021/05/14 08:51:07;;;;;;;19.73;17.63;;;;;;;16.76;58.32;99498.34;5080869;28;20507;-66
2021/05/14 08:53:33;;;;;;;20.27;17.33;;;;;;;16.66;57.87;99498.69;5072687;28;20460;-67
2021/05/14 08:56:00;;;;;;;22.90;20.13;;;;;;;16.19;59.42;99502.94;5080612;28;20537;-67
2021/05/14 08:58:26;;;;;;;22.50;18.60;;;;;;;16.19;59.33;99494.84;5077638;28;20526;-67
2021/05/14 09:00:53;;;;;;;23.40;18.33;;;;;;;16.22;59.51;99502.56;5074755;28;20476;-68
2021/05/14 09:03:20;;;;;;;21.73;18.80;;;;;;;16.34;59.96;99497.47;5080151;28;20452;-67
2021/05/14 09:05:47;;;;;;;20.07;17.50;;;;;;;16.47;59.12;99505.63;5077855;28;20468;-70
2021/05/14 09:08:13;;;;;;;22.47;18.87;;;;;;;16.22;59.50;99501.72;5074342;28;20453;-69
2021/05/14 09:10:39;;;;;;;21.20;18.57;;;;;;;16.10;60.31;99507.63;5077678;28;20500;-70
2021/05/14 09:13:10;;;;;;;20.23;17.40;;;;;;;16.57;58.75;99513.38;5078588;28;20820;-71
2021/05/14 09:15:40;;;;;;;20.43;17.57;;;;;;;15.73;60.69;99512.25;5075948;28;20476;-69
2021/05/14 09:18:12;;;;;;;23.07;19.87;;;;;;;16.59;59.33;99515.88;5080293;28;20475;-71
2021/05/14 09:20:39;;;;;;;23.43;18.70;;;;;;;16.63;59.14;99512.59;5077347;28;20463;-71
2021/05/14 09:23:29;;;;;;;22.93;18.30;;;;;;;16.50;59.77;99509.81;5076576;28;20460;-70
2021/05/14 09:25:57;;;;;;;21.10;18.80;;;;;;;16.06;60.26;99517.16;5080961;28;20471;-71
2021/05/14 09:28:25;;;;;;;21.20;18.83;;;;;;;15.89;60.95;99516.59;5081030;28;20432;-71
2021/05/14 09:31:11;;;;;;;22.00;19.17;;;;;;;16.18;60.05;99521.00;5080718;28;20475;-72
2021/05/14 09:33:39;;;;;;;22.43;19.87;;;;;;;16.02;60.56;99517.72;5080419;28;20451;-71
2021/05/14 09:36:07;;;;;;;22.90;19.60;;;;;;;15.61;62.13;99511.94;5079185;28;20502;-71
2021/05/14 09:38:45;;;;;;;24.43;19.60;;;;;;;14.83;63.97;99519.69;5080980;28;20471;-70
2021/05/14 09:41:30;;;;;;;21.47;19.00;;;;;;;15.74;62.23;99515.78;5080138;28;20475;-70
2021/05/14 09:44:01;;;;;;;22.30;18.73;;;;;;;15.69;61.77;99521.75;5079526;28;20477;-69
2021/05/14 09:46:29;;;;;;;20.10;17.53;;;;;;;15.73;61.13;99527.59;5079584;28;20472;-69
2021/05/14 09:48:58;;;;;;;17.43;15.63;;;;;;;15.39;61.79;99524.53;5077176;28;20463;-70
2021/05/14 09:51:24;;;;;;;18.17;16.27;;;;;;;15.90;60.85;99520.97;5073832;28;20472;-70
2021/05/14 09:53:51;;;;;;;21.43;16.13;;;;;;;15.94;61.45;99529.50;5077988;28;20486;-70
2021/05/14 09:56:29;;;;;;;19.50;15.30;;;;;;;16.50;59.57;99524.13;5078521;28;20471;-69
2021/05/14 09:58:57;;;;;;;15.73;13.60;;;;;;;16.52;59.34;99523.94;5078804;28;20539;-68
2021/05/14 10:01:24;;;;;;;16.43;13.83;;;;;;;16.12;58.86;99520.94;5078377;28;20482;-70
2021/05/14 10:03:51;;;;;;;17.20;13.93;;;;;;;15.45;61.65;99522.97;5071263;28;20792;-68
2021/05/14 10:06:18;;;;;;;13.67;12.27;;;;;;;16.11;60.00;99528.19;5059317;28;20517;-63
2021/05/14 10:08:49;;;;;;;15.33;13.83;;;;;;;16.09;60.10;99526.72;5070828;28;20454;-67
2021/05/14 10:11:16;;;;;;;15.53;13.93;;;;;;;15.52;62.66;99523.00;5073720;28;20478;-67
2021/05/14 10:13:42;;;;;;;16.43;13.60;;;;;;;15.69;61.15;99515.53;5077978;28;20452;-65
2021/05/14 10:16:08;;;;;;;15.50;13.67;;;;;;;16.63;59.49;99520.69;5077643;28;20853;-70
2021/05/14 10:18:36;;;;;;;15.60;13.70;;;;;;;17.07;57.91;99521.38;5078885;28;21075;-69
2021/05/14 10:21:07;;;;;;;14.07;12.60;;;;;;;17.24;57.21;99519.16;5072044;28;20534;-67
2021/05/14 10:23:35;;;;;;;14.33;12.83;;;;;;;17.54;55.86;99522.38;5076063;28;20463;-66
2021/05/14 10:26:08;;;;;;;12.77;11.50;;;;;;;17.49;56.49;99527.56;5077032;28;21016;-67
2021/05/14 10:28:44;;;;;;;13.03;10.73;;;;;;;17.82;54.42;99511.41;5066414;28;20486;-67
2021/05/14 10:31:22;;;;;;;11.70;10.60;;;;;;;18.13;53.75;99517.28;5074767;28;20492;-68
2021/05/14 10:33:50;;;;;;;11.63;10.40;;;;;;;18.04;54.09;99514.78;5077738;28;20459;-65
2021/05/14 10:36:45;;;;;;;11.80;10.70;;;;;;;18.25;53.38;99524.56;5071495;28;20490;-67
2021/05/14 10:39:15;;;;;;;11.90;10.67;;;;;;;17.41;55.05;99514.22;5065447;28;20473;-65
2021/05/14 10:41:52;;;;;;;12.20;10.90;;;;;;;17.15;56.75;99512.25;5060792;28;20492;-65
2021/05/14 10:44:19;;;;;;;12.50;11.20;;;;;;;17.33;55.78;99520.66;5072509;28;20467;-65
2021/05/14 10:46:45;;;;;;;11.20;10.00;;;;;;;17.47;55.47;99513.41;5081563;28;20955;-69
2021/05/14 10:49:12;;;;;;;11.67;10.47;;;;;;;17.16;55.97;99514.75;5074229;28;20435;-64
2021/05/14 10:52:06;;;;;;;11.70;10.50;;;;;;;17.02;56.85;99516.56;5077525;28;20479;-64
2021/05/14 10:54:50;;;;;;;10.83;9.70;;;;;;;16.70;57.58;99520.72;5012406;28;20458;-64
2021/05/14 10:57:47;;;;;;;12.43;11.23;;;;;;;16.87;58.55;99516.72;5009523;28;20518;-64
2021/05/14 11:00:30;;;;;;;12.97;11.60;;;;;;;17.77;56.57;99523.88;5016096;28;20514;-64
2021/05/14 11:03:14;;;;;;;12.67;11.37;;;;;;;17.70;56.90;99523.84;5015340;28;20493;-65
2021/05/14 11:05:42;;;;;;;13.70;11.20;;;;;;;17.94;55.13;99522.47;5014762;28;20474;-65
2021/05/14 11:08:08;;;;;;;13.00;11.60;;;;;;;17.91;55.45;99522.88;5016653;28;20438;-65
2021/05/14 11:10:37;;;;;;;12.93;11.70;;;;;;;18.74;53.38;99511.59;5013891;28;20569;-64
2021/05/14 11:13:35;;;;;;;13.27;11.93;;;;;;;18.65;53.73;99510.16;5000843;28;20455;-63
2021/05/14 11:16:38;;;;;;;11.27;10.07;;;;;;;18.84;52.63;99510.38;5005101;28;20560;-64
2021/05/14 11:19:22;;;;;;;11.60;10.50;;;;;;;18.94;52.00;99510.72;5001811;28;20482;-64
2021/05/14 11:22:08;;;;;;;11.50;10.30;;;;;;;17.98;53.57;99512.91;5011898;28;21072;-64
2021/05/14 11:24:36;;;;;;;11.63;10.00;;;;;;;18.05;53.31;99519.16;5031308;28;21193;-64